Time;durP1;ratioP1;P1;durP2;ratioP2;P2;SDS_P1;SDS_P2;PMS_P1;PMS_P2;Temp;Humidity;BMP_temperature;BMP_pressure;BME280_temperature;BME280_humidity;BME280_pressure;Samples;Min_cycle;Max_cycle;Signal;HPM_P1;HPM_P2
2024/03/13 00:01:15;;;;;;;52.50;29.90;;;;;;;5.83;97.73;99655.23;217972;1263;140010;-72
2024/03/13 00:06:22;;;;;;;47.30;26.90;;;;;;;5.83;97.30;99661.24;218001;1260;140632;-74
2024/03/13 00:11:27;;;;;;;49.40;27.50;;;;;;;5.83;97.72;99663.48;218306;1260;140206;-73
2024/03/13 00:16:31;;;;;;;50.60;28.80;;;;;;;5.83;98.02;99664.39;217611;1263;141698;-76
2024/03/13 00:21:36;;;;;;;47.60;25.70;;;;;;;5.84;97.50;99666.30;217247;1260;140490;-72
2024/03/13 00:26:39;;;;;;;45.50;25.10;;;;;;;5.85;97.58;99662.02;217798;1262;140950;-72
2024/03/13 00:31:44;;;;;;;43.30;24.90;;;;;;;5.86;97.80;99665.48;217011;1263;140865;-76
2024/03/13 00:36:49;;;;;;;48.40;26.80;;;;;;;5.87;98.14;99664.59;218021;1260;140604;-72
2024/03/13 00:41:54;;;;;;;49.40;27.10;;;;;;;5.86;97.98;99666.90;217135;1263;139408;-73
2024/03/13 00:46:58;;;;;;;51.80;29.90;;;;;;;5.86;97.70;99666.95;216994;1264;140276;-73
2024/03/13 00:52:02;;;;;;;40.00;22.90;;;;;;;5.84;97.44;99670.08;217086;1263;139730;-73
2024/03/13 00:57:07;;;;;;;44.90;25.70;;;;;;;5.83;97.61;99675.13;217066;1259;139599;-75
2024/03/13 01:02:11;;;;;;;50.80;25.50;;;;;;;5.80;98.00;99670.43;217200;1261;139886;-72
2024/03/13 01:07:17;;;;;;;53.30;30.90;;;;;;;5.80;97.74;99668.80;217482;1260;141046;-73
2024/03/13 01:12:21;;;;;;;46.20;27.50;;;;;;;5.79;97.64;99667.02;217137;1259;140096;-73
2024/03/13 01:17:26;;;;;;;51.90;27.90;;;;;;;5.77;97.43;99663.32;217126;1262;140159;-72
2024/03/13 01:22:31;;;;;;;47.30;27.40;;;;;;;5.73;97.73;99659.20;217407;1259;139606;-74
2024/03/13 01:27:37;;;;;;;50.60;25.60;;;;;;;5.72;98.02;99660.80;217021;1259;140075;-78
2024/03/13 01:32:43;;;;;;;43.50;26.10;;;;;;;5.69;97.70;99660.58;217202;1263;140181;-73
2024/03/13 01:37:58;;;;;;;46.60;25.40;;;;;;;5.68;98.05;99663.35;217106;1263;141396;-74
2024/03/13 01:59:23;;;;;;;50.70;27.50;;;;;;;5.71;97.97;99666.54;219536;1260;140843;-74
2024/03/13 02:04:29;;;;;;;48.70;26.20;;;;;;;5.68;97.65;99660.39;216845;1263;140904;-75
2024/03/13 02:09:33;;;;;;;54.00;25.30;;;;;;;5.64;97.81;99662.70;217099;1260;140301;-75
2024/03/13 02:14:39;;;;;;;46.50;25.90;;;;;;;5.65;98.05;99662.22;216956;1260;140158;-76
2024/03/13 02:19:45;;;;;;;53.10;26.40;;;;;;;5.64;97.92;99661.81;216973;1263;142411;-76
2024/03/13 02:24:50;;;;;;;49.40;28.80;;;;;;;5.63;98.06;99665.95;216953;1263;141115;-75
2024/03/13 02:29:55;;;;;;;51.60;25.90;;;;;;;5.62;97.89;99662.38;216892;1260;140230;-76
2024/03/13 02:34:59;;;;;;;51.20;28.00;;;;;;;5.61;98.25;99664.98;216953;1261;139712;-76
2024/03/13 02:40:06;;;;;;;53.20;32.20;;;;;;;5.59;98.30;99668.84;217563;1259;140574;-76
2024/03/13 02:45:13;;;;;;;54.10;29.90;;;;;;;5.60;98.39;99670.19;217147;1263;142021;-75
2024/03/13 02:50:19;;;;;;;48.30;27.50;;;;;;;5.61;98.27;99672.55;216943;1261;139918;-76
2024/03/13 02:55:23;;;;;;;62.20;31.00;;;;;;;5.60;98.31;99676.58;217010;1260;140341;-75
2024/03/13 03:00:28;;;;;;;54.50;30.30;;;;;;;5.57;98.07;99674.13;217294;1263;140317;-75
2024/03/13 03:05:34;;;;;;;48.70;29.70;;;;;;;5.53;98.12;99675.30;217016;1259;140434;-75
2024/03/13 03:10:37;;;;;;;48.50;27.20;;;;;;;5.51;98.39;99680.64;217243;1259;140525;-75
2024/03/13 03:15:44;;;;;;;55.40;28.80;;;;;;;5.51;98.56;99683.24;217715;1259;139850;-75
2024/03/13 03:20:48;;;;;;;53.50;29.10;;;;;;;5.49;98.61;99678.46;217941;1262;139460;-75
2024/03/13 03:25:53;;;;;;;55.40;28.40;;;;;;;5.49;98.35;99682.52;217081;1259;139403;-76
2024/03/13 03:30:58;;;;;;;46.40;25.70;;;;;;;5.48;98.44;99685.95;216885;1261;140028;-77
2024/03/13 03:36:02;;;;;;;49.20;28.20;;;;;;;5.48;98.61;99687.94;217108;1260;140400;-76
2024/03/13 03:41:07;;;;;;;47.90;27.40;;;;;;;5.47;98.08;99687.94;217866;1259;140176;-77
2024/03/13 03:46:14;;;;;;;49.30;25.50;;;;;;;5.45;98.34;99685.37;219811;1259;139704;-77
2024/03/13 03:51:19;;;;;;;;;;;;;;;5.44;98.59;99687.73;218765;1259;140900;-77
2024/03/13 03:56:24;;;;;;;45.70;26.80;;;;;;;5.44;98.30;99691.06;217554;1260;126938;-77
2024/03/13 04:01:28;;;;;;;43.10;23.20;;;;;;;5.45;98.40;99693.63;217100;1263;141238;-75
2024/03/13 04:06:33;;;;;;;43.60;26.40;;;;;;;5.46;98.07;99695.54;217322;1259;141096;-75
2024/03/13 04:11:38;;;;;;;42.80;24.10;;;;;;;5.45;98.28;99701.15;217650;1261;140983;-77
2024/03/13 04:16:43;;;;;;;50.30;24.70;;;;;;;5.44;98.25;99705.50;217291;1264;140655;-76
2024/03/13 04:21:48;;;;;;;43.90;25.10;;;;;;;5.44;98.18;99705.09;217155;1259;141812;-77
2024/03/13 04:26:51;;;;;;;41.70;24.20;;;;;;;5.42;98.05;99710.05;217253;1263;139983;-76
2024/03/13 04:31:57;;;;;;;37.90;22.90;;;;;;;5.38;98.03;99713.66;217173;1259;139725;-76
2024/03/13 04:37:02;;;;;;;37.00;20.70;;;;;;;5.33;97.90;99719.55;217070;1259;139817;-76
2024/03/13 04:42:07;;;;;;;33.80;21.20;;;;;;;5.28;98.07;99723.77;217196;1260;140593;-75
2024/03/13 04:47:12;;;;;;;40.30;23.50;;;;;;;5.23;97.71;99727.58;217085;1262;139935;-75
2024/03/13 04:52:18;;;;;;;43.00;22.90;;;;;;;5.17;97.89;99731.64;217031;1263;139549;-75
2024/03/13 04:57:22;;;;;;;43.40;22.80;;;;;;;5.12;97.89;99739.52;217316;1262;139808;-75
2024/03/13 05:02:26;;;;;;;37.90;24.00;;;;;;;5.12;97.92;99738.05;217226;1259;140625;-76
2024/03/13 05:07:31;;;;;;;42.10;21.60;;;;;;;5.10;98.35;99737.84;217197;1260;139681;-75
2024/03/13 05:12:39;;;;;;;39.80;25.10;;;;;;;5.11;98.09;99737.80;217077;1263;142120;-74
2024/03/13 05:17:42;;;;;;;40.00;23.50;;;;;;;5.13;98.45;99742.81;216956;1263;140057;-76
2024/03/13 05:22:47;;;;;;;40.00;22.30;;;;;;;5.17;98.72;99749.73;217242;1259;141860;-75
2024/03/13 05:27:52;;;;;;;39.60;21.80;;;;;;;5.18;98.36;99751.33;217657;1259;139992;-76
2024/03/13 05:32:59;;;;;;;45.90;23.20;;;;;;;5.17;98.69;99756.48;217036;1263;467512;-76
2024/03/13 05:38:03;;;;;;;41.50;23.70;;;;;;;5.20;98.72;99765.10;217039;1263;139678;-76
2024/03/13 05:43:09;;;;;;;50.10;26.20;;;;;;;5.25;98.93;99764.02;217022;1260;141107;-76
2024/03/13 05:48:14;;;;;;;45.10;23.70;;;;;;;5.28;98.46;99767.15;217697;1259;140115;-76
2024/03/13 05:53:30;;;;;;;47.30;26.60;;;;;;;5.32;98.71;99773.59;218433;1259;140469;-74
2024/03/13 05:58:34;;;;;;;54.20;28.80;;;;;;;5.32;98.31;99773.14;217110;1261;140606;-75
2024/03/13 06:03:38;;;;;;;48.60;24.60;;;;;;;5.35;98.77;99777.50;217816;1261;141659;-73
2024/03/13 06:08:43;;;;;;;47.10;24.60;;;;;;;5.38;98.49;99780.97;217318;1259;140095;-76
2024/03/13 06:13:47;;;;;;;47.20;24.30;;;;;;;5.41;98.61;99782.27;217247;1259;139903;-72
2024/03/13 06:18:52;;;;;;;40.00;21.40;;;;;;;5.43;98.80;99781.67;217300;1263;141171;-72
2024/03/13 06:24:00;;;;;;;47.70;27.80;;;;;;;5.46;98.77;99787.45;217048;1261;140384;-76
2024/03/13 06:34:47;;;;;;;44.60;25.00;;;;;;;5.55;98.87;99789.94;216373;1269;141240;-73
2024/03/13 06:39:53;;;;;;;52.90;29.50;;;;;;;5.57;98.96;99793.69;216931;1263;139909;-76
2024/03/13 06:44:57;;;;;;;62.40;28.70;;;;;;;5.58;98.84;99799.39;217431;1261;139962;-73
2024/03/13 06:50:01;;;;;;;56.30;24.40;;;;;;;5.59;98.84;99799.55;217512;1259;140090;-73
2024/03/13 06:55:05;;;;;;;51.60;28.10;;;;;;;5.63;98.71;99800.33;217696;1263;140414;-74
2024/03/13 07:00:09;;;;;;;54.30;29.20;;;;;;;5.68;98.54;99805.31;217608;1263;140033;-71
2024/03/13 07:05:17;;;;;;;57.20;26.50;;;;;;;5.79;99.20;99805.08;217345;1261;140843;-72
2024/03/13 07:10:22;;;;;;;56.60;27.40;;;;;;;5.90;98.88;99809.83;217499;1259;140429;-73
2024/03/13 07:15:34;;;;;;;68.20;30.40;;;;;;;5.96;98.82;99811.35;217133;1260;142054;-74
2024/03/13 07:20:39;;;;;;;70.00;30.90;;;;;;;5.98;98.54;99815.46;217241;1263;140099;-73
2024/03/13 07:25:42;;;;;;;74.20;31.00;;;;;;;6.01;98.76;99811.20;217891;1259;140929;-74
2024/03/13 07:30:49;;;;;;;64.60;30.50;;;;;;;6.06;98.93;99811.77;217414;1259;141835;-73
2024/03/13 07:35:54;;;;;;;55.20;29.00;;;;;;;6.16;99.15;99812.89;217326;1259;139879;-75
2024/03/13 07:40:58;;;;;;;49.40;25.70;;;;;;;6.25;98.62;99815.91;217061;1260;140617;-76
2024/03/13 07:46:03;;;;;;;58.80;29.00;;;;;;;6.31;98.82;99816.69;217675;1263;141093;-77
2024/03/13 07:51:07;;;;;;;50.30;25.90;;;;;;;6.38;98.62;99815.59;217699;1258;139835;-74
2024/03/13 07:56:11;;;;;;;62.30;27.70;;;;;;;6.43;98.38;99817.84;217646;1259;140594;-78
2024/03/13 08:01:17;;;;;;;48.60;23.20;;;;;;;6.58;98.51;99825.04;216915;1259;140249;-74
2024/03/13 08:06:22;;;;;;;56.50;28.40;;;;;;;6.71;98.40;99830.77;217191;1262;141549;-76
2024/03/13 08:11:43;;;;;;;56.70;28.20;;;;;;;6.81;98.61;99834.64;217954;1259;139995;-75
2024/03/13 08:17:06;;;;;;;52.10;25.10;;;;;;;6.96;98.40;99840.20;217864;1263;142089;-76
2024/03/13 08:22:28;;;;;;;40.40;21.70;;;;;;;7.14;98.29;99840.66;217304;1258;139747;-75
2024/03/13 08:27:49;;;;;;;59.30;28.00;;;;;;;7.36;97.94;99848.12;217073;1263;139861;-75
2024/03/13 08:33:15;;;;;;;42.40;22.30;;;;;;;7.51;97.60;99852.63;217118;1259;140022;-75
2024/03/13 08:38:37;;;;;;;43.20;21.90;;;;;;;7.61;97.27;99851.67;217100;1260;139198;-79
2024/03/13 08:43:58;;;;;;;39.70;23.20;;;;;;;7.82;97.41;99852.27;217624;1259;139887;-79
2024/03/13 08:49:19;;;;;;;41.90;20.50;;;;;;;8.03;97.24;99858.79;217063;1259;158658;-76
2024/03/13 08:54:41;;;;;;;46.90;23.00;;;;;;;8.05;96.28;99865.84;218247;1262;140504;-78
2024/03/13 09:00:05;;;;;;;47.30;21.00;;;;;;;8.07;95.98;99865.05;217366;1259;140448;-76
2024/03/13 09:05:29;;;;;;;39.30;21.20;;;;;;;8.21;96.14;99868.43;217173;1259;139990;-76
2024/03/13 09:10:51;;;;;;;38.70;24.20;;;;;;;8.31;95.52;99870.10;217142;1259;141467;-76
2024/03/13 09:15:55;;;;;;;35.70;20.10;;;;;;;8.29;95.01;99871.86;217021;1259;140691;-76
2024/03/13 09:20:59;;;;;;;34.50;19.40;;;;;;;8.29;94.93;99871.88;217286;1259;140620;-75
2024/03/13 09:26:06;;;;;;;33.00;20.50;;;;;;;8.34;94.82;99874.84;217258;1263;141927;-74
2024/03/13 09:31:12;;;;;;;39.30;20.60;;;;;;;8.42;94.51;99875.02;217805;1262;139969;-75
2024/03/13 09:36:16;;;;;;;29.90;17.70;;;;;;;8.53;94.61;99879.81;217021;1262;140294;-75
2024/03/13 09:41:22;;;;;;;29.00;19.40;;;;;;;8.57;93.92;99887.23;217153;1262;139706;-74
2024/03/13 09:46:27;;;;;;;41.60;19.80;;;;;;;8.59;93.72;99895.02;217331;1264;139953;-79
2024/03/13 09:51:33;;;;;;;25.80;14.70;;;;;;;8.68;93.74;99896.75;217163;1259;140995;-78
2024/03/13 09:56:40;;;;;;;24.40;15.30;;;;;;;8.72;93.08;99902.25;217289;1263;140711;-79
2024/03/13 10:01:51;;;;;;;24.00;15.90;;;;;;;8.75;93.07;99903.02;217746;1262;139687;-79
2024/03/13 10:07:01;;;;;;;24.70;17.00;;;;;;;8.86;92.99;99904.68;216988;1259;140690;-76
2024/03/13 10:12:10;;;;;;;27.50;17.90;;;;;;;9.06;93.18;99902.11;217223;1262;140206;-75
2024/03/13 10:17:18;;;;;;;24.50;16.10;;;;;;;9.29;92.55;99905.66;217371;1259;141217;-75
2024/03/13 10:22:23;;;;;;;22.60;14.70;;;;;;;9.41;92.07;99903.36;217119;1259;140466;-77
2024/03/13 10:27:28;;;;;;;28.00;19.20;;;;;;;9.50;91.89;99905.17;217960;1259;141487;-77
2024/03/13 10:32:32;;;;;;;28.80;16.60;;;;;;;9.55;91.24;99904.77;217054;1265;141029;-77
2024/03/13 10:37:37;;;;;;;34.30;18.00;;;;;;;9.64;91.21;99910.27;217154;1262;140344;-76
2024/03/13 10:42:42;;;;;;;31.10;19.40;;;;;;;9.80;91.17;99911.65;217049;1262;245976;-77
2024/03/13 10:47:49;;;;;;;24.60;18.20;;;;;;;9.87;90.44;99913.86;217260;1263;141285;-76
2024/03/13 10:52:55;;;;;;;22.10;13.90;;;;;;;9.96;90.28;99911.66;217104;1262;141298;-75
2024/03/13 10:58:04;;;;;;;21.10;14.20;;;;;;;9.99;89.83;99913.22;216987;1262;139998;-80
2024/03/13 11:03:12;;;;;;;21.80;14.40;;;;;;;9.99;89.27;99917.55;217318;1259;140083;-79
2024/03/13 11:08:17;;;;;;;;;;;;;;;9.96;88.95;99917.14;217361;1260;141081;-77
2024/03/13 11:13:26;;;;;;;29.00;17.10;;;;;;;9.82;88.41;99916.77;217466;1259;126527;-77
2024/03/13 11:18:32;;;;;;;22.30;15.20;;;;;;;9.77;88.47;99914.05;217399;1259;139861;-77
2024/03/13 11:23:44;;;;;;;20.00;13.90;;;;;;;9.90;88.72;99909.52;217116;1263;140245;-77
2024/03/13 11:28:54;;;;;;;29.20;17.90;;;;;;;10.09;88.47;99907.25;217370;1262;140657;-78
2024/03/13 11:34:00;;;;;;;24.70;15.90;;;;;;;10.26;88.15;99907.35;217251;1261;141090;-78
2024/03/13 11:39:06;;;;;;;26.00;16.70;;;;;;;10.36;87.52;99905.64;217460;1263;139887;-78
2024/03/13 11:44:19;;;;;;;23.50;15.80;;;;;;;10.31;86.90;99902.04;217449;1263;141583;-78
2024/03/13 11:49:25;;;;;;;27.20;17.40;;;;;;;10.34;86.72;99901.46;217021;1263;141751;-78
2024/03/13 11:54:32;;;;;;;24.10;16.80;;;;;;;10.44;86.79;99896.29;217240;1259;141159;-76
2024/03/13 11:59:38;;;;;;;27.20;16.50;;;;;;;10.63;86.49;99894.50;217255;1259;139903;-76
2024/03/13 12:04:42;;;;;;;26.00;15.60;;;;;;;10.68;85.72;99898.24;217250;1264;140724;-77
2024/03/13 12:09:50;;;;;;;25.80;16.90;;;;;;;10.63;84.89;99896.33;217198;1263;142430;-76
2024/03/13 12:14:55;;;;;;;23.10;15.40;;;;;;;10.63;84.57;99890.23;217357;1260;143659;-76
2024/03/13 12:19:59;;;;;;;26.20;16.90;;;;;;;10.64;84.58;99890.59;217100;1260;140063;-78
2024/03/13 12:25:03;;;;;;;28.70;18.70;;;;;;;10.76;84.67;99893.41;217282;1260;140825;-77
2024/03/13 12:30:14;;;;;;;26.10;16.00;;;;;;;11.01;84.85;99891.20;217277;1260;141000;-78
2024/03/13 12:35:20;;;;;;;29.10;17.70;;;;;;;11.18;84.23;99891.45;217233;1262;140623;-77
2024/03/13 12:40:25;;;;;;;25.20;17.30;;;;;;;11.41;84.06;99889.36;217264;1259;139810;-78
2024/03/13 12:45:31;;;;;;;25.90;17.70;;;;;;;11.51;83.19;99886.37;217245;1262;141308;-78
2024/03/13 12:50:37;;;;;;;23.70;16.40;;;;;;;11.66;83.07;99882.75;218069;1263;140760;-76
2024/03/13 12:55:41;;;;;;;27.30;16.40;;;;;;;11.94;82.82;99878.48;217568;1262;140323;-77
2024/03/13 13:00:46;;;;;;;20.10;14.30;;;;;;;12.21;82.03;99881.64;217309;1263;140042;-78
2024/03/13 13:05:50;;;;;;;23.20;16.10;;;;;;;12.29;81.03;99875.84;217501;1260;221533;-79
2024/03/13 13:10:56;;;;;;;26.50;16.90;;;;;;;12.44;80.90;99875.36;218178;1259;140801;-76
2024/03/13 13:16:05;;;;;;;27.30;17.00;;;;;;;12.56;80.68;99875.39;217948;1259;140546;-80
2024/03/13 13:21:10;;;;;;;24.20;17.50;;;;;;;12.50;79.38;99877.46;217810;1263;141199;-75
2024/03/13 13:26:15;;;;;;;25.70;15.70;;;;;;;12.22;78.96;99886.45;217447;1263;139886;-80
2024/03/13 13:31:19;;;;;;;26.60;16.70;;;;;;;12.07;78.70;99880.64;217141;1263;140577;-77
2024/03/13 13:36:23;;;;;;;28.70;16.50;;;;;;;12.15;78.79;99877.22;217348;1264;140118;-78
2024/03/13 13:41:28;;;;;;;25.20;15.30;;;;;;;12.28;78.67;99883.19;217254;1259;140805;-80
2024/03/13 13:46:35;;;;;;;24.10;17.30;;;;;;;12.37;78.30;99881.36;217283;1263;140303;-79
2024/03/13 13:51:43;;;;;;;23.50;16.10;;;;;;;12.28;77.62;99884.05;217193;1263;139976;-78
2024/03/13 13:56:47;;;;;;;29.50;19.30;;;;;;;12.25;77.09;99884.48;217618;1260;140450;-78
2024/03/13 14:01:54;;;;;;;32.70;17.80;;;;;;;12.15;76.82;99878.55;217323;1263;141827;-76
2024/03/13 14:07:02;;;;;;;27.90;17.40;;;;;;;12.00;76.97;99880.58;217046;1259;140770;-79
2024/03/13 14:12:12;;;;;;;27.50;18.40;;;;;;;12.11;77.40;99875.13;217350;1263;139534;-76
2024/03/13 14:17:17;;;;;;;24.70;17.50;;;;;;;12.15;76.64;99874.34;217095;1259;141257;-77
2024/03/13 14:22:20;;;;;;;27.30;16.40;;;;;;;12.21;76.46;99873.30;217294;1263;141251;-76
2024/03/13 14:27:26;;;;;;;31.40;17.20;;;;;;;12.18;76.18;99875.49;217158;1263;141603;-78
2024/03/13 14:32:31;;;;;;;29.60;18.20;;;;;;;12.03;75.80;99882.13;217598;1260;140467;-77
2024/03/13 14:37:37;;;;;;;30.60;18.00;;;;;;;12.11;76.00;99879.65;217086;1265;140691;-80
2024/03/13 14:42:45;;;;;;;28.30;17.80;;;;;;;12.24;76.16;99884.67;217633;1263;141093;-78
2024/03/13 14:47:51;;;;;;;25.70;16.70;;;;;;;12.43;75.86;99874.11;217228;1263;140185;-77
2024/03/13 14:52:56;;;;;;;33.60;21.00;;;;;;;12.50;75.47;99875.59;217721;1261;140578;-78
2024/03/13 14:58:09;;;;;;;30.80;17.90;;;;;;;12.66;75.78;99880.48;217245;1260;140410;-78
2024/03/13 15:03:14;;;;;;;36.20;20.00;;;;;;;12.74;75.49;99879.70;217632;1263;140890;-78
2024/03/13 15:08:19;;;;;;;35.30;21.80;;;;;;;12.75;75.40;99879.83;216947;1263;140107;-78
2024/03/13 15:13:23;;;;;;;31.80;20.60;;;;;;;12.66;75.19;99879.36;217031;1261;141212;-77
2024/03/13 15:18:29;;;;;;;31.80;21.30;;;;;;;12.49;74.64;99880.65;217365;1262;140895;-77
2024/03/13 15:23:34;;;;;;;34.30;20.20;;;;;;;12.30;74.63;99889.96;217888;1262;140574;-78
2024/03/13 15:28:39;;;;;;;33.70;20.50;;;;;;;12.07;74.36;99887.05;217289;1264;141327;-77
2024/03/13 15:33:44;;;;;;;35.80;21.70;;;;;;;11.88;74.24;99890.83;217674;1265;143186;-78
2024/03/13 15:38:49;;;;;;;33.80;20.90;;;;;;;11.73;74.40;99893.36;218006;1264;141010;-79
2024/03/13 15:43:54;;;;;;;36.80;20.70;;;;;;;11.68;74.56;99889.67;216767;1264;140733;-77
2024/03/13 15:48:59;;;;;;;38.30;20.90;;;;;;;11.64;74.49;99899.32;216790;1264;141256;-76
2024/03/13 15:54:04;;;;;;;39.80;21.30;;;;;;;11.60;74.85;99895.83;216753;1264;142517;-76
2024/03/13 15:59:11;;;;;;;28.80;17.10;;;;;;;11.55;74.94;99899.31;217000;1260;141718;-78
2024/03/13 16:04:15;;;;;;;42.30;24.10;;;;;;;11.42;74.61;99901.94;216672;1267;141463;-78
2024/03/13 16:09:19;;;;;;;40.20;24.30;;;;;;;11.24;74.46;99900.98;216784;1263;141352;-78
2024/03/13 16:14:24;;;;;;;43.30;23.50;;;;;;;11.14;74.78;99905.55;216902;1261;141560;-79
2024/03/13 16:19:29;;;;;;;47.70;26.20;;;;;;;10.99;74.74;99911.74;216679;1260;140541;-79
2024/03/13 16:24:33;;;;;;;81.10;45.80;;;;;;;10.81;74.75;99909.73;216689;1264;140511;-79
2024/03/13 16:29:37;;;;;;;75.30;41.40;;;;;;;10.54;74.90;99912.24;216816;1264;141428;-77
2024/03/13 16:34:45;;;;;;;47.00;27.80;;;;;;;10.34;75.33;99918.96;216973;1261;140051;-77
2024/03/13 16:39:51;;;;;;;51.70;27.70;;;;;;;10.16;75.57;99921.95;217955;1263;141211;-77
2024/03/13 16:44:56;;;;;;;48.60;28.00;;;;;;;10.01;75.78;99925.11;217207;1264;141939;-77
2024/03/13 16:50:03;;;;;;;56.00;29.00;;;;;;;9.85;75.98;99927.65;216947;1263;139929;-75
2024/03/13 16:55:09;;;;;;;43.60;26.70;;;;;;;9.64;75.95;99932.46;218314;1263;141623;-77
2024/03/13 17:00:16;;;;;;;54.00;24.80;;;;;;;9.40;75.89;99938.36;216834;1260;142194;-75
2024/03/13 17:05:22;;;;;;;44.40;22.00;;;;;;;9.13;76.35;99945.08;216834;1261;141370;-76
2024/03/13 17:10:28;;;;;;;40.20;21.80;;;;;;;8.89;76.55;99943.31;218616;1260;141542;-77
2024/03/13 17:15:32;;;;;;;43.90;20.40;;;;;;;8.76;77.49;99943.14;217129;1261;141068;-76
2024/03/13 17:20:37;;;;;;;38.30;19.80;;;;;;;8.71;77.88;99943.30;219779;1261;140816;-75
2024/03/13 17:25:42;;;;;;;38.10;22.40;;;;;;;8.66;78.53;99946.52;218580;1261;140801;-76
2024/03/13 17:30:46;;;;;;;41.30;21.10;;;;;;;8.63;78.72;99950.88;216714;1261;272688;-75
2024/03/13 17:35:50;;;;;;;37.90;20.80;;;;;;;8.57;78.99;99957.83;217046;1263;141422;-75
2024/03/13 17:40:54;;;;;;;40.20;23.00;;;;;;;8.50;79.34;99959.87;217794;1259;140252;-75
2024/03/13 17:45:58;;;;;;;41.00;21.00;;;;;;;8.42;79.51;99964.24;216749;1264;140040;-76
2024/03/13 17:51:03;;;;;;;42.90;23.50;;;;;;;8.32;79.88;99960.66;217067;1260;141726;-76
2024/03/13 17:56:08;;;;;;;44.50;23.20;;;;;;;8.14;79.61;99959.38;217095;1261;140942;-75
2024/03/13 18:01:11;;;;;;;41.40;19.00;;;;;;;8.04;80.38;99959.62;216992;1260;140974;-76
2024/03/13 18:06:18;;;;;;;40.60;22.90;;;;;;;8.01;80.64;99959.52;216848;1260;140293;-75
2024/03/13 18:11:23;;;;;;;42.60;25.40;;;;;;;7.98;81.16;99964.30;217092;1263;140062;-75
2024/03/13 18:16:28;;;;;;;42.20;22.50;;;;;;;7.89;80.75;99964.58;216828;1260;139773;-75
2024/03/13 18:21:32;;;;;;;45.90;24.20;;;;;;;7.71;81.01;99965.12;217056;1261;140544;-75
2024/03/13 18:26:36;;;;;;;52.90;25.60;;;;;;;7.65;81.87;99968.73;216835;1260;140961;-76
2024/03/13 18:31:40;;;;;;;93.80;43.00;;;;;;;7.65;82.11;99969.75;216688;1260;140845;-76
2024/03/13 18:36:47;;;;;;;87.70;44.60;;;;;;;7.65;81.98;99970.75;217054;1260;140609;-77
2024/03/13 18:41:52;;;;;;;82.80;40.90;;;;;;;7.61;82.23;99968.45;218112;1263;139618;-79
2024/03/13 18:46:56;;;;;;;64.30;33.30;;;;;;;7.60;82.71;99968.05;217406;1260;139540;-78
2024/03/13 18:52:03;;;;;;;50.40;25.80;;;;;;;7.57;82.74;99971.40;216701;1264;140819;-77
2024/03/13 18:57:07;;;;;;;46.80;28.20;;;;;;;7.53;82.86;99975.41;216691;1260;140148;-78
2024/03/13 19:02:11;;;;;;;42.80;21.30;;;;;;;7.47;82.78;99973.75;217118;1263;140879;-77
2024/03/13 19:07:18;;;;;;;49.20;25.80;;;;;;;7.31;83.04;99974.61;217851;1260;139809;-76
2024/03/13 19:12:22;;;;;;;48.20;25.00;;;;;;;7.30;83.80;99977.48;216836;1260;140525;-76
2024/03/13 19:17:26;;;;;;;63.50;33.30;;;;;;;7.22;83.35;99975.04;219324;1259;140986;-77
2024/03/13 19:22:30;;;;;;;67.90;36.30;;;;;;;7.08;83.49;99974.43;217765;1260;140046;-76
2024/03/13 19:27:34;;;;;;;69.00;35.90;;;;;;;7.10;84.43;99974.35;217010;1261;139978;-76
2024/03/13 19:32:40;;;;;;;74.20;36.40;;;;;;;7.10;84.47;99976.84;218434;1260;140263;-76
2024/03/13 19:37:47;;;;;;;80.00;36.10;;;;;;;7.11;84.74;99984.30;219058;1259;141290;-77
2024/03/13 19:42:54;;;;;;;80.50;38.00;;;;;;;7.13;85.05;99984.17;216929;1260;140793;-77
2024/03/13 19:47:58;;;;;;;68.30;35.70;;;;;;;7.14;85.01;99984.38;217383;1260;139270;-76
2024/03/13 19:53:03;;;;;;;66.60;33.80;;;;;;;7.13;85.15;99985.28;217124;1263;140036;-76
2024/03/13 19:58:09;;;;;;;63.20;32.90;;;;;;;7.01;84.70;99994.35;216938;1261;140592;-76
2024/03/13 20:03:14;;;;;;;64.20;34.90;;;;;;;6.93;85.41;99995.50;217037;1261;140891;-76
2024/03/13 20:08:20;;;;;;;69.20;36.70;;;;;;;6.94;85.95;99991.63;217182;1259;140019;-77
2024/03/13 20:13:26;;;;;;;69.40;37.90;;;;;;;6.94;86.15;99986.53;217186;1259;140533;-78
2024/03/13 20:18:33;;;;;;;56.10;30.40;;;;;;;6.97;86.56;99988.13;217271;1263;139941;-77
2024/03/13 20:23:38;;;;;;;62.60;33.60;;;;;;;6.99;86.33;99982.21;217208;1260;140098;-76
2024/03/13 20:28:42;;;;;;;65.70;36.50;;;;;;;6.98;86.24;99985.31;217011;1260;141379;-76
2024/03/13 20:33:46;;;;;;;62.40;30.60;;;;;;;6.98;86.74;99990.29;216800;1263;140784;-76
2024/03/13 20:38:51;;;;;;;63.20;35.00;;;;;;;6.93;86.44;99990.57;217513;1260;139824;-75
2024/03/13 20:43:57;;;;;;;65.80;38.50;;;;;;;6.94;86.94;99986.25;217514;1260;141458;-75
2024/03/13 20:49:01;;;;;;;58.30;32.00;;;;;;;6.92;86.51;99988.77;216792;1262;142800;-74
2024/03/13 20:54:05;;;;;;;63.30;31.90;;;;;;;6.92;87.15;99986.49;217497;1263;141660;-75
2024/03/13 20:59:12;;;;;;;65.40;34.50;;;;;;;6.92;86.93;99989.14;216944;1261;140015;-76
2024/03/13 21:04:17;;;;;;;74.90;40.80;;;;;;;6.91;87.13;99989.30;216792;1263;140561;-76
2024/03/13 21:09:23;;;;;;;76.20;38.10;;;;;;;6.90;87.33;99989.26;216785;1263;140626;-76
2024/03/13 21:14:31;;;;;;;74.40;40.90;;;;;;;6.85;86.91;99993.30;216892;1264;140221;-76
2024/03/13 21:19:36;;;;;;;75.10;38.80;;;;;;;6.79;87.20;99989.83;216766;1260;140267;-74
2024/03/13 21:24:40;;;;;;;73.40;38.70;;;;;;;6.77;87.67;99987.91;217083;1259;140162;-74
2024/03/13 21:29:45;;;;;;;72.10;38.70;;;;;;;6.78;87.63;99978.48;217247;1263;139674;-77
2024/03/13 21:34:51;;;;;;;68.80;38.00;;;;;;;6.77;87.20;99972.09;217126;1260;139779;-75
2024/03/13 21:39:57;;;;;;;75.60;37.70;;;;;;;6.75;87.83;99968.25;217003;1260;140087;-75
2024/03/13 21:45:01;;;;;;;78.30;39.40;;;;;;;6.73;87.34;99973.84;216776;1261;140727;-75
2024/03/13 21:50:08;;;;;;;62.50;35.80;;;;;;;6.70;88.14;99969.26;217016;1260;139914;-76
2024/03/13 21:55:12;;;;;;;65.80;38.30;;;;;;;6.71;87.99;99970.24;217472;1260;139779;-75
2024/03/13 22:00:16;;;;;;;73.60;41.00;;;;;;;6.73;88.01;99968.42;217220;1260;141106;-74
2024/03/13 22:05:19;;;;;;;88.20;43.20;;;;;;;6.72;88.18;99966.56;216952;1259;139678;-74
2024/03/13 22:10:23;;;;;;;81.50;43.70;;;;;;;6.72;88.44;99968.28;217407;1259;139767;-75
2024/03/13 22:15:28;;;;;;;76.20;43.20;;;;;;;6.72;88.52;99971.62;217144;1258;141187;-74
2024/03/13 22:20:32;;;;;;;87.10;47.20;;;;;;;6.68;88.26;99972.39;217331;1262;140903;-76
2024/03/13 22:25:36;;;;;;;78.30;46.30;;;;;;;6.59;88.10;99970.42;217337;1261;139741;-76
2024/03/13 22:30:40;;;;;;;85.00;48.40;;;;;;;6.50;88.27;99977.95;217575;1260;139635;-74
2024/03/13 22:35:45;;;;;;;82.60;44.20;;;;;;;6.50;88.36;99979.09;217347;1260;140067;-74
2024/03/13 22:40:49;;;;;;;71.40;41.10;;;;;;;6.44;88.56;99985.64;217775;1261;139780;-76
2024/03/13 22:45:55;;;;;;;64.50;39.00;;;;;;;6.37;88.36;99980.84;217202;1260;140261;-74
2024/03/13 22:51:00;;;;;;;73.00;44.10;;;;;;;6.31;88.45;99975.41;218317;1261;141163;-74
2024/03/13 22:56:06;;;;;;;78.20;42.10;;;;;;;6.29;89.06;99984.41;217730;1259;139692;-77
2024/03/13 23:01:17;;;;;;;73.00;40.50;;;;;;;6.34;89.22;99990.70;217756;1259;140727;-76
2024/03/13 23:06:22;;;;;;;69.20;40.00;;;;;;;6.32;88.90;99987.19;217410;1259;140983;-78
2024/03/13 23:11:27;;;;;;;64.90;40.60;;;;;;;6.32;89.26;99988.98;217166;1260;139778;-77
2024/03/13 23:16:31;;;;;;;65.70;38.40;;;;;;;6.31;89.11;99986.08;217521;1262;140951;-76
2024/03/13 23:21:36;;;;;;;63.60;37.80;;;;;;;6.29;89.25;99989.70;217269;1260;140484;-75
2024/03/13 23:26:43;;;;;;;66.70;41.20;;;;;;;6.32;89.57;99987.02;217336;1260;139816;-75
2024/03/13 23:31:47;;;;;;;;;;;;;;;6.30;89.52;99984.86;217238;1260;140295;-74